McClellan, California
Current Conditions -  °F | °C
As of 7:35 PM on Saturday 24 Jan 2015 (Local Time) from KMCC Reporting Station
Haze Haze  
Wind Chill: 41°   Ceiling: 400
Heat Index: 45°   Visibility: 2mi
Dew Point: 45°   Wind: 6mph
Humidity: 100%   Direction: 160°SSE
Pressure: 30.18"   Gusts: NA
Location:  38.6632°N, 121.383°W
Report Text: KMCC 250335Z AUTO 16005KT 2SM BR OVC004 07/07 A3018 RMK AO2
Loading
Personal Weather Stations






























Interactive Weather Map New forecast layout! Learn more

10-Day Weather Forecast

Advertisements
Track Severe Weather on mobile